createdAt,value
2024-02-10T00:00:11.677Z,96948.4
2024-02-10T00:01:13.647Z,96948.4
2024-02-10T00:02:12.786Z,96947.6
2024-02-10T00:03:11.848Z,96947.4
2024-02-10T00:04:12.477Z,96946.8
2024-02-10T00:05:12.569Z,96945.2
2024-02-10T00:06:12.385Z,96943.2
2024-02-10T00:07:12.452Z,96942
2024-02-10T00:08:12.281Z,96941.4
2024-02-10T00:09:13.317Z,96940
2024-02-10T00:10:12.466Z,96938.8
2024-02-10T00:11:12.325Z,96939.4
2024-02-10T00:12:13.290Z,96939
2024-02-10T00:13:12.480Z,96937.8
2024-02-10T00:14:13.120Z,96938
2024-02-10T00:15:13.278Z,96938.8
2024-02-10T00:16:12.344Z,96937.8
2024-02-10T00:17:13.221Z,96936.8
2024-02-10T00:18:12.118Z,96937.8
2024-02-10T00:19:12.313Z,96938.6
2024-02-10T00:20:12.136Z,96939
2024-02-10T00:21:12.156Z,96940.2
2024-02-10T00:22:12.015Z,96941.6
2024-02-10T00:23:29.913Z,96941.6
2024-02-10T00:24:16.846Z,96941.6
2024-02-10T00:25:16.184Z,96941.4
2024-02-10T00:26:12.893Z,96941
2024-02-10T00:27:13.011Z,96941.6
2024-02-10T00:28:14.746Z,96942.4
2024-02-10T00:29:13.803Z,96942
2024-02-10T00:30:11.698Z,96942.2
2024-02-10T00:31:11.556Z,96942.6
2024-02-10T00:32:13.564Z,96942
2024-02-10T00:33:13.555Z,96942
2024-02-10T00:34:14.727Z,96942.4
2024-02-10T00:35:13.288Z,96942.6
2024-02-10T00:36:13.235Z,96943
2024-02-10T00:37:12.212Z,96943.8
2024-02-10T00:38:14.048Z,96944.4
2024-02-10T00:39:22.040Z,96943.4
2024-02-10T00:40:14.166Z,96942.4
2024-02-10T00:41:14.057Z,96941.6
2024-02-10T00:42:11.930Z,96940.6
2024-02-10T00:43:11.863Z,96939.8
2024-02-10T00:44:11.855Z,96940
2024-02-10T00:45:11.980Z,96940.2
2024-02-10T00:46:13.991Z,96940.4
2024-02-10T00:47:11.836Z,96940.6
2024-02-10T00:48:11.806Z,96939.8
2024-02-10T00:49:14.818Z,96940.6
2024-02-10T00:50:11.781Z,96940.4
2024-02-10T00:51:11.656Z,96940.4
2024-02-10T00:52:11.687Z,96939.6
2024-02-10T00:53:12.622Z,96938.6
2024-02-10T00:54:11.498Z,96938.2
2024-02-10T00:55:11.737Z,96937.6
2024-02-10T00:56:11.667Z,96936.2
2024-02-10T00:57:13.673Z,96935.2
2024-02-10T00:58:11.576Z,96934
2024-02-10T00:59:11.441Z,96931.4
2024-02-10T01:00:12.664Z,96930.8
2024-02-10T01:01:11.547Z,96932
2024-02-10T01:02:12.713Z,96932
2024-02-10T01:03:11.599Z,96932
2024-02-10T01:04:11.543Z,96931
2024-02-10T01:05:14.837Z,96930
2024-02-10T01:06:11.547Z,96926.2
2024-02-10T01:07:12.471Z,96925
2024-02-10T01:08:12.377Z,96924.4
2024-02-10T01:09:12.388Z,96923.8
2024-02-10T01:10:12.597Z,96922
2024-02-10T01:11:12.471Z,96922
2024-02-10T01:12:12.444Z,96919.8
2024-02-10T01:13:14.408Z,96917.8
2024-02-10T01:14:12.347Z,96917
2024-02-10T01:15:12.490Z,96916
2024-02-10T01:16:12.508Z,96912.6
2024-02-10T01:17:13.451Z,96911
2024-02-10T01:18:12.459Z,96906.8
2024-02-10T01:19:12.674Z,96902.8
2024-02-10T01:20:12.443Z,96900.4
2024-02-10T01:21:14.284Z,96899.4
2024-02-10T01:22:12.215Z,96897.6
2024-02-10T01:23:12.495Z,96898.8
2024-02-10T01:24:11.968Z,96899.8
2024-02-10T01:25:13.045Z,96900.2
2024-02-10T01:26:12.941Z,96900.6
2024-02-10T01:27:11.910Z,96901
2024-02-10T01:28:11.884Z,96901
2024-02-10T01:29:13.830Z,96901.2
2024-02-10T01:30:12.891Z,96900.8
2024-02-10T01:31:11.921Z,96900.6
2024-02-10T01:32:11.771Z,96900.6
2024-02-10T01:33:11.874Z,96900.4
2024-02-10T01:34:11.789Z,96901.4
2024-02-10T01:35:11.772Z,96901.2
2024-02-10T01:36:11.653Z,96901.8
2024-02-10T01:37:13.586Z,96903.2
2024-02-10T01:38:11.511Z,96903
2024-02-10T01:39:12.507Z,96902
2024-02-10T01:40:13.068Z,96902.4
2024-02-10T01:41:11.586Z,96902.4
2024-02-10T01:42:11.545Z,96902
2024-02-10T01:43:11.814Z,96903.4
2024-02-10T01:44:12.174Z,96904
2024-02-10T01:45:14.249Z,96904.2
2024-02-10T01:46:12.251Z,96903.8
2024-02-10T01:47:13.077Z,96903.4
2024-02-10T01:48:12.126Z,96902
2024-02-10T01:49:11.995Z,96900.4
2024-02-10T01:50:12.139Z,96899.2
2024-02-10T01:51:11.966Z,96897.6
2024-02-10T01:52:11.941Z,96894.8
2024-02-10T01:53:13.892Z,96893
2024-02-10T01:54:11.740Z,96891.4
2024-02-10T01:55:12.068Z,96890
2024-02-10T01:56:11.880Z,96889
2024-02-10T01:57:11.795Z,96889
2024-02-10T01:58:11.791Z,96888.2
2024-02-10T01:59:11.656Z,96888
2024-02-10T02:00:11.835Z,96889.2
2024-02-10T02:01:13.798Z,96891
2024-02-10T02:02:11.886Z,96891.2
2024-02-10T02:03:11.835Z,96893
2024-02-10T02:04:11.615Z,96893.2
2024-02-10T02:05:11.733Z,96891.8
2024-02-10T02:06:11.738Z,96889.8
2024-02-10T02:07:11.681Z,96889.4
2024-02-10T02:08:11.558Z,96887.4
2024-02-10T02:09:13.558Z,96886.4
2024-02-10T02:10:11.830Z,96885.8
2024-02-10T02:11:11.589Z,96884.4
2024-02-10T02:12:11.441Z,96882.2
2024-02-10T02:13:12.435Z,96879.6
2024-02-10T02:14:12.213Z,96876.8
2024-02-10T02:15:12.304Z,96874.6
2024-02-10T02:16:12.318Z,96872.8
2024-02-10T02:17:13.148Z,96871.2
2024-02-10T02:18:12.062Z,96870
2024-02-10T02:19:11.955Z,96869.2
2024-02-10T02:20:11.995Z,96867.2
2024-02-10T02:21:11.874Z,96864.8
2024-02-10T02:22:11.865Z,96863.2
2024-02-10T02:23:12.651Z,96862.4
2024-02-10T02:24:11.611Z,96861.2
2024-02-10T02:25:13.856Z,96859.8
2024-02-10T02:26:11.565Z,96859.8
2024-02-10T02:27:11.414Z,96858.8
2024-02-10T02:28:12.445Z,96857.8
2024-02-10T02:29:12.300Z,96857.4
2024-02-10T02:30:12.336Z,96857.6
2024-02-10T02:31:12.436Z,96856.8
2024-02-10T02:32:13.186Z,96856.6
2024-02-10T02:33:13.100Z,96855.6
2024-02-10T02:34:12.151Z,96854.2
2024-02-10T02:35:12.568Z,96852.4
2024-02-10T02:36:11.901Z,96851
2024-02-10T02:37:12.854Z,96848.8
2024-02-10T02:38:11.805Z,96848.4
2024-02-10T02:39:11.850Z,96848.4
2024-02-10T02:40:13.048Z,96848.4
2024-02-10T02:41:13.832Z,96848.6
2024-02-10T02:42:12.768Z,96849
2024-02-10T02:43:11.721Z,96848.4
2024-02-10T02:44:12.563Z,96847
2024-02-10T02:45:12.109Z,96846.6
2024-02-10T02:46:13.912Z,96845.4
2024-02-10T02:47:11.622Z,96845.4
2024-02-10T02:48:11.594Z,96845.4
2024-02-10T02:49:13.482Z,96844.8
2024-02-10T02:50:12.507Z,96843.6
2024-02-10T02:51:11.578Z,96844.2
2024-02-10T02:52:11.522Z,96844.6
2024-02-10T02:53:12.353Z,96845
2024-02-10T02:54:12.363Z,96846
2024-02-10T02:55:13.296Z,96847.8
2024-02-10T02:56:11.517Z,96849.4
2024-02-10T02:57:14.461Z,96850.2
2024-02-10T02:58:12.565Z,96850.2
2024-02-10T02:59:12.309Z,96850.8
2024-02-10T03:00:12.334Z,96850.6
2024-02-10T03:01:12.364Z,96850.2
2024-02-10T03:02:12.325Z,96850.2
2024-02-10T03:03:12.355Z,96850.6
2024-02-10T03:04:13.201Z,96851.8
2024-02-10T03:05:14.724Z,96852.8
2024-02-10T03:06:12.213Z,96853.8
2024-02-10T03:07:12.093Z,96854.8
2024-02-10T03:08:12.013Z,96854.8
2024-02-10T03:09:11.937Z,96853.8
2024-02-10T03:10:12.053Z,96853.2
2024-02-10T03:11:11.947Z,96852.2
2024-02-10T03:12:11.937Z,96850.8
2024-02-10T03:13:13.902Z,96851
2024-02-10T03:14:12.825Z,96851.8
2024-02-10T03:15:17.862Z,96852.4
2024-02-10T03:16:11.787Z,96852.8
2024-02-10T03:17:12.824Z,96853.8
2024-02-10T03:18:12.201Z,96854.6
2024-02-10T03:19:11.835Z,96855.2
2024-02-10T03:20:12.757Z,96855.6
2024-02-10T03:21:13.595Z,96856.4
2024-02-10T03:22:11.528Z,96856.8
2024-02-10T03:23:12.411Z,96857.4
2024-02-10T03:24:12.325Z,96857.8
2024-02-10T03:25:13.362Z,96857
2024-02-10T03:26:12.397Z,96856.8
2024-02-10T03:27:13.259Z,96858.2
2024-02-10T03:28:12.391Z,96856.8
2024-02-10T03:29:14.251Z,96856.8
2024-02-10T03:30:12.339Z,96858
2024-02-10T03:31:12.397Z,96857.6
2024-02-10T03:32:13.218Z,96856.2
2024-02-10T03:33:12.266Z,96858.4
2024-02-10T03:34:12.076Z,96859
2024-02-10T03:35:12.276Z,96860.2
2024-02-10T03:36:12.076Z,96861.4
2024-02-10T03:37:12.845Z,96862
2024-02-10T03:38:11.737Z,96861.8
2024-02-10T03:39:11.729Z,96861.8
2024-02-10T03:40:11.875Z,96860.4
2024-02-10T03:41:11.777Z,96859.8
2024-02-10T03:42:12.636Z,96859
2024-02-10T03:43:11.635Z,96856.4
2024-02-10T03:44:11.645Z,96854.8
2024-02-10T03:45:13.690Z,96853.6
2024-02-10T03:46:11.558Z,96852.4
2024-02-10T03:47:11.505Z,96851.4
2024-02-10T03:48:12.545Z,96852.8
2024-02-10T03:49:12.431Z,96852.8
2024-02-10T03:50:12.575Z,96853
2024-02-10T03:51:11.379Z,96851.4
2024-02-10T03:52:13.425Z,96850.8
2024-02-10T03:53:16.329Z,96849.2
2024-02-10T03:54:16.203Z,96848.2
2024-02-10T03:55:12.365Z,96847.8
2024-02-10T03:56:12.295Z,96848.2
2024-02-10T03:57:13.236Z,96848.4
2024-02-10T03:58:12.086Z,96849
2024-02-10T03:59:12.002Z,96850.4
2024-02-10T04:00:12.439Z,96850
2024-02-10T04:01:14.202Z,96850.2
2024-02-10T04:02:13.106Z,96848.6
2024-02-10T04:03:11.984Z,96847
2024-02-10T04:04:11.949Z,96844.2
2024-02-10T04:05:12.046Z,96844.4
2024-02-10T04:06:11.984Z,96844.4
2024-02-10T04:07:11.869Z,96844.4
2024-02-10T04:08:11.814Z,96845.8
2024-02-10T04:09:13.864Z,96847.6
2024-02-10T04:10:11.934Z,96848.2
2024-02-10T04:11:11.853Z,96849.8
2024-02-10T04:12:12.753Z,96853
2024-02-10T04:13:11.743Z,96854.4
2024-02-10T04:14:11.588Z,96854
2024-02-10T04:15:11.810Z,96853.4
2024-02-10T04:16:11.697Z,96850.6
2024-02-10T04:17:13.734Z,96847.2
2024-02-10T04:18:11.712Z,96842.2
2024-02-10T04:19:11.569Z,96837.6
2024-02-10T04:20:11.933Z,96833
2024-02-10T04:21:11.695Z,96829.6
2024-02-10T04:22:12.684Z,96826.2
2024-02-10T04:23:11.612Z,96825.2
2024-02-10T04:24:11.569Z,96825.4
2024-02-10T04:25:13.799Z,96826.6
2024-02-10T04:26:11.658Z,96828.4
2024-02-10T04:27:12.593Z,96830.6
2024-02-10T04:28:11.446Z,96832
2024-02-10T04:29:12.420Z,96832.2
2024-02-10T04:30:12.526Z,96832.2
2024-02-10T04:31:11.404Z,96830.8
2024-02-10T04:32:13.360Z,96828.6
2024-02-10T04:33:12.564Z,96826.8
2024-02-10T04:34:12.170Z,96825.2
2024-02-10T04:35:12.285Z,96822
2024-02-10T04:36:12.201Z,96820.6
2024-02-10T04:37:13.151Z,96821
2024-02-10T04:38:12.163Z,96821.2
2024-02-10T04:39:12.199Z,96822
2024-02-10T04:40:12.324Z,96824
2024-02-10T04:41:12.200Z,96824.6
2024-02-10T04:42:13.057Z,96824
2024-02-10T04:43:14.260Z,96823.6
2024-02-10T04:44:11.935Z,96822.8
2024-02-10T04:45:12.016Z,96821.8
2024-02-10T04:46:11.960Z,96821.2
2024-02-10T04:47:11.876Z,96819.8
2024-02-10T04:48:11.845Z,96817.8
2024-02-10T04:49:11.862Z,96816.8
2024-02-10T04:50:11.894Z,96814.6
2024-02-10T04:51:13.897Z,96812.4
2024-02-10T04:52:12.775Z,96810.6
2024-02-10T04:53:11.711Z,96809.2
2024-02-10T04:54:11.632Z,96808
2024-02-10T04:55:11.851Z,96806.6
2024-02-10T04:56:12.692Z,96806.6
2024-02-10T04:57:11.587Z,96807.6
2024-02-10T04:58:11.543Z,96807.8
2024-02-10T04:59:11.472Z,96806
2024-02-10T05:00:12.563Z,96805.6
2024-02-10T05:01:11.608Z,96803.8
2024-02-10T05:02:13.610Z,96802.4
2024-02-10T05:03:11.528Z,96800.8
2024-02-10T05:04:12.431Z,96800.4
2024-02-10T05:05:12.534Z,96799.8
2024-02-10T05:06:12.453Z,96799.4
2024-02-10T05:07:13.553Z,96797.8
2024-02-10T05:08:12.133Z,96798
2024-02-10T05:09:14.227Z,96798
2024-02-10T05:10:12.303Z,96798.4
2024-02-10T05:11:12.195Z,96797
2024-02-10T05:12:13.158Z,96798.8
2024-02-10T05:13:12.001Z,96798.6
2024-02-10T05:14:11.896Z,96799
2024-02-10T05:15:12.883Z,96799.4
2024-02-10T05:16:12.821Z,96801.2
2024-02-10T05:17:14.661Z,96799
2024-02-10T05:18:11.778Z,96797.8
2024-02-10T05:19:14.591Z,96795.8
2024-02-10T05:20:13.629Z,96794.2
2024-02-10T05:21:12.404Z,96792.6
2024-02-10T05:22:13.352Z,96792.6
2024-02-10T05:23:12.165Z,96792.8
2024-02-10T05:24:12.244Z,96792.4
2024-02-10T05:25:14.324Z,96791.2
2024-02-10T05:26:12.052Z,96790
2024-02-10T05:27:11.918Z,96786.8
2024-02-10T05:28:11.715Z,96783.8
2024-02-10T05:29:13.088Z,96782.4
2024-02-10T05:30:11.993Z,96780.6
2024-02-10T05:31:12.044Z,96779.8
2024-02-10T05:32:12.958Z,96780.4
2024-02-10T05:33:15.210Z,96780
2024-02-10T05:34:12.237Z,96780
2024-02-10T05:35:16.329Z,96780.4
2024-02-10T05:36:12.199Z,96781.4
2024-02-10T05:37:13.125Z,96782.8
2024-02-10T05:38:11.890Z,96784
2024-02-10T05:39:11.984Z,96785.4
2024-02-10T05:40:11.957Z,96786.6
2024-02-10T05:41:13.876Z,96787.2
2024-02-10T05:42:11.799Z,96787.8
2024-02-10T05:43:12.701Z,96790
2024-02-10T05:44:11.548Z,96791.4
2024-02-10T05:45:11.522Z,96793
2024-02-10T05:46:11.378Z,96794
2024-02-10T05:47:14.101Z,96795.6
2024-02-10T05:48:12.322Z,96796.6
2024-02-10T05:49:14.447Z,96797.2
2024-02-10T05:50:12.483Z,96798.6
2024-02-10T05:51:12.364Z,96800.6
2024-02-10T05:52:12.367Z,96801.2
2024-02-10T05:53:12.366Z,96801.2
2024-02-10T05:54:12.197Z,96802.2
2024-02-10T05:55:12.129Z,96800.4
2024-02-10T05:56:13.086Z,96797.2
2024-02-10T05:57:13.984Z,96794.4
2024-02-10T05:58:11.795Z,96793.4
2024-02-10T05:59:22.830Z,96792.4
2024-02-10T06:00:11.808Z,96794
2024-02-10T06:01:11.841Z,96796.6
2024-02-10T06:02:11.701Z,96799.4
2024-02-10T06:03:11.649Z,96801.4
2024-02-10T06:04:14.605Z,96801.4
2024-02-10T06:05:12.733Z,96802.2
2024-02-10T06:06:12.468Z,96804
2024-02-10T06:07:13.311Z,96805
2024-02-10T06:08:12.197Z,96805.8
2024-02-10T06:09:12.088Z,96807.2
2024-02-10T06:10:12.120Z,96807.6
2024-02-10T06:11:12.067Z,96806.4
2024-02-10T06:12:13.985Z,96806.4
2024-02-10T06:13:12.895Z,96805.8
2024-02-10T06:14:18.792Z,96806.2
2024-02-10T06:15:11.801Z,96806
2024-02-10T06:16:11.752Z,96807
2024-02-10T06:17:12.674Z,96807
2024-02-10T06:18:11.618Z,96806.8
2024-02-10T06:19:11.540Z,96807
2024-02-10T06:20:13.919Z,96807.2
2024-02-10T06:21:14.404Z,96807.4
2024-02-10T06:22:13.335Z,96809.6
2024-02-10T06:23:12.256Z,96812.4
2024-02-10T06:24:12.148Z,96814.8
2024-02-10T06:25:12.216Z,96816.4
2024-02-10T06:26:12.582Z,96817.2
2024-02-10T06:27:12.100Z,96816.2
2024-02-10T06:28:11.884Z,96814.4
2024-02-10T06:29:14.851Z,96812.6
2024-02-10T06:30:11.812Z,96812
2024-02-10T06:31:11.683Z,96812.2
2024-02-10T06:32:11.661Z,96811.8
2024-02-10T06:33:11.742Z,96813.2
2024-02-10T06:34:20.566Z,96814.4
2024-02-10T06:35:11.565Z,96817.4
2024-02-10T06:36:11.493Z,96820
2024-02-10T06:37:15.446Z,96823.2
2024-02-10T06:38:13.756Z,96825.2
2024-02-10T06:39:26.351Z,96827.2
2024-02-10T06:40:24.737Z,96828.4
2024-02-10T06:41:12.306Z,96829.2
2024-02-10T06:42:12.106Z,96830.8
2024-02-10T06:43:12.061Z,96832.2
2024-02-10T06:44:11.949Z,96834
2024-02-10T06:45:13.034Z,96835.2
2024-02-10T06:46:12.015Z,96836
2024-02-10T06:47:12.044Z,96836
2024-02-10T06:48:11.879Z,96835.8
2024-02-10T06:49:11.880Z,96835.8
2024-02-10T06:50:12.770Z,96835.6
2024-02-10T06:51:11.690Z,96836.6
2024-02-10T06:52:11.637Z,96837.2
2024-02-10T06:53:14.507Z,96836.6
2024-02-10T06:54:12.468Z,96836.2
2024-02-10T06:55:15.493Z,96836.8
2024-02-10T06:56:13.369Z,96837.2
2024-02-10T06:57:13.191Z,96837.6
2024-02-10T06:58:14.151Z,96840.2
2024-02-10T06:59:13.039Z,96841.6
2024-02-10T07:00:12.065Z,96843
2024-02-10T07:01:27.038Z,96844.4
2024-02-10T07:02:11.929Z,96846.6
2024-02-10T07:03:11.752Z,96848.8
2024-02-10T07:04:11.705Z,96851
2024-02-10T07:05:12.807Z,96851.8
2024-02-10T07:06:11.637Z,96852.2
2024-02-10T07:07:11.398Z,96853
2024-02-10T07:08:12.319Z,96853.8
2024-02-10T07:09:14.260Z,96855.6
2024-02-10T07:10:13.198Z,96856.8
2024-02-10T07:11:12.150Z,96858.4
2024-02-10T07:12:11.994Z,96860
2024-02-10T07:13:11.965Z,96861.6
2024-02-10T07:14:11.869Z,96861.4
2024-02-10T07:15:11.828Z,96862.6
2024-02-10T07:16:11.752Z,96863.4
2024-02-10T07:17:13.709Z,96863.2
2024-02-10T07:18:11.756Z,96863.2
2024-02-10T07:19:11.529Z,96863.8
2024-02-10T07:20:12.476Z,96864.4
2024-02-10T07:21:12.342Z,96865.2
2024-02-10T07:22:12.344Z,96866.8
2024-02-10T07:23:12.247Z,96867
2024-02-10T07:24:12.195Z,96868.6
2024-02-10T07:25:14.128Z,96869.2
2024-02-10T07:26:12.206Z,96870.4
2024-02-10T07:27:12.241Z,96870.8
2024-02-10T07:28:12.325Z,96871.4
2024-02-10T07:29:13.275Z,96870.4
2024-02-10T07:30:12.238Z,96870.4
2024-02-10T07:31:13.708Z,96870.2
2024-02-10T07:32:12.082Z,96871.2
2024-02-10T07:33:13.092Z,96872.2
2024-02-10T07:34:11.925Z,96873.6
2024-02-10T07:35:12.040Z,96874
2024-02-10T07:36:11.795Z,96874.6
2024-02-10T07:37:11.822Z,96874
2024-02-10T07:38:11.892Z,96873.8
2024-02-10T07:39:11.792Z,96874.6
2024-02-10T07:40:11.776Z,96876
2024-02-10T07:41:12.614Z,96875.8
2024-02-10T07:42:11.655Z,96876.4
2024-02-10T07:43:11.568Z,96877.6
2024-02-10T07:44:12.470Z,96878.6
2024-02-10T07:45:12.433Z,96877.6
2024-02-10T07:46:14.596Z,96876.6
2024-02-10T07:47:12.370Z,96876.4
2024-02-10T07:48:12.462Z,96875.2
2024-02-10T07:49:14.203Z,96873.6
2024-02-10T07:50:12.385Z,96873.4
2024-02-10T07:51:12.191Z,96874.8
2024-02-10T07:52:12.024Z,96874.6
2024-02-10T07:53:12.335Z,96875.6
2024-02-10T07:54:12.029Z,96877.2
2024-02-10T07:55:11.993Z,96878.6
2024-02-10T07:56:11.975Z,96879.8
2024-02-10T07:57:12.809Z,96881
2024-02-10T07:58:11.769Z,96881.8
2024-02-10T07:59:11.723Z,96882.4
2024-02-10T08:00:12.676Z,96883.6
2024-02-10T08:01:11.678Z,96883.6
2024-02-10T08:02:11.575Z,96884.8
2024-02-10T08:03:11.490Z,96885.2
2024-02-10T08:04:13.345Z,96886.4
2024-02-10T08:05:16.595Z,96886.6
2024-02-10T08:06:12.200Z,96887.2
2024-02-10T08:07:12.172Z,96887.2
2024-02-10T08:08:12.413Z,96887.8
2024-02-10T08:09:13.010Z,96886.6
2024-02-10T08:10:11.928Z,96886.2
2024-02-10T08:11:11.822Z,96885.8
2024-02-10T08:12:11.711Z,96884.8
2024-02-10T08:13:12.599Z,96883.4
2024-02-10T08:14:11.493Z,96883.2
2024-02-10T08:15:12.462Z,96881.8
2024-02-10T08:16:12.270Z,96881
2024-02-10T08:17:12.227Z,96880.6
2024-02-10T08:18:12.067Z,96880.2
2024-02-10T08:19:12.139Z,96879.4
2024-02-10T08:20:12.132Z,96879.8
2024-02-10T08:21:12.805Z,96879.6
2024-02-10T08:22:11.728Z,96878.2
2024-02-10T08:23:11.711Z,96877.8
2024-02-10T08:24:11.740Z,96877.4
2024-02-10T08:25:11.823Z,96876
2024-02-10T08:26:11.685Z,96875.6
2024-02-10T08:27:11.695Z,96876.4
2024-02-10T08:28:11.432Z,96876
2024-02-10T08:29:13.475Z,96876
2024-02-10T08:30:12.361Z,96875.4
2024-02-10T08:31:12.318Z,96873.6
2024-02-10T08:32:12.203Z,96871.2
2024-02-10T08:33:12.160Z,96870.8
2024-02-10T08:34:12.063Z,96870.2
2024-02-10T08:35:11.987Z,96871.2
2024-02-10T08:36:11.903Z,96873.4
2024-02-10T08:37:12.776Z,96875.2
2024-02-10T08:38:11.717Z,96875.8
2024-02-10T08:39:11.666Z,96876.2
2024-02-10T08:40:11.697Z,96877.4
2024-02-10T08:41:11.638Z,96877.6
2024-02-10T08:42:11.542Z,96878.2
2024-02-10T08:43:11.479Z,96879.8
2024-02-10T08:44:11.409Z,96879.8
2024-02-10T08:45:13.392Z,96879.4
2024-02-10T08:46:12.352Z,96879.2
2024-02-10T08:47:12.335Z,96880
2024-02-10T08:48:12.503Z,96880.2
2024-02-10T08:49:13.213Z,96883.8
2024-02-10T08:50:12.205Z,96886
2024-02-10T08:51:12.086Z,96887.8
2024-02-10T08:52:16.419Z,96889
2024-02-10T08:53:13.936Z,96889.6
2024-02-10T08:54:12.722Z,96889.6
2024-02-10T08:55:51.897Z,96889.6
2024-02-10T08:56:52.750Z,96889.6
2024-02-10T08:57:52.683Z,96889.6
2024-02-10T08:58:52.768Z,96891.2
2024-02-10T08:59:52.902Z,96891.2
2024-02-10T09:00:52.616Z,96891.2
2024-02-10T09:01:52.689Z,96891.2
2024-02-10T09:02:52.468Z,96891.2
2024-02-10T09:03:53.497Z,96891.2
2024-02-10T09:04:53.391Z,96891.2
2024-02-10T09:05:52.319Z,96891.2
2024-02-10T09:06:52.268Z,96893
2024-02-10T09:07:52.406Z,96893
2024-02-10T09:08:52.218Z,96893
2024-02-10T09:09:52.185Z,96893
2024-02-10T09:10:52.261Z,96893
2024-02-10T09:11:52.120Z,96893
2024-02-10T09:12:52.190Z,96892.8
2024-02-10T09:13:52.131Z,96892.8
2024-02-10T09:14:52.076Z,96895.6
2024-02-10T09:15:52.135Z,96895.6
2024-02-10T09:16:52.095Z,96895.6
2024-02-10T09:17:52.414Z,96897.6
2024-02-10T09:18:52.083Z,96897.6
2024-02-10T09:19:52.022Z,96897.6
2024-02-10T09:20:51.952Z,96898.8
2024-02-10T09:21:51.865Z,96898.8
2024-02-10T09:22:52.894Z,96901
2024-02-10T09:23:52.765Z,96901
2024-02-10T09:24:55.055Z,96902.6
2024-02-10T09:25:49.705Z,96902.6
2024-02-10T09:26:52.543Z,96902.6
2024-02-10T09:27:52.544Z,96902.6
2024-02-10T09:28:49.634Z,96906
2024-02-10T09:29:23.698Z,96907.2
2024-02-10T09:30:11.724Z,96914.4
2024-02-10T09:31:11.621Z,96918.2
2024-02-10T09:32:11.553Z,96921
2024-02-10T09:33:11.520Z,96923.4
2024-02-10T09:34:17.440Z,96925
2024-02-10T09:35:12.434Z,96923.8
2024-02-10T09:36:12.812Z,96923.2
2024-02-10T09:37:23.967Z,96924.8
2024-02-10T09:38:19.253Z,96923
2024-02-10T09:39:46.020Z,96920.2
2024-02-10T09:40:20.860Z,96919.4
2024-02-10T09:41:12.702Z,96915.8
2024-02-10T09:42:12.878Z,96914.2
2024-02-10T09:43:11.957Z,96913.6
2024-02-10T09:44:12.120Z,96916.4
2024-02-10T09:45:12.014Z,96916.4
2024-02-10T09:46:11.972Z,96919
2024-02-10T09:47:11.837Z,96918.6
2024-02-10T09:48:11.820Z,96918.2
2024-02-10T09:49:11.842Z,96916.4
2024-02-10T09:50:20.498Z,96916.8
2024-02-10T09:51:12.534Z,96917
2024-02-10T09:52:14.421Z,96916
2024-02-10T09:53:13.337Z,96918.2
2024-02-10T09:54:12.266Z,96918
2024-02-10T09:55:12.311Z,96918.8
2024-02-10T09:56:12.361Z,96920.2
2024-02-10T09:57:12.150Z,96920.8
2024-02-10T09:58:14.063Z,96919.2
2024-02-10T09:59:11.922Z,96920.6
2024-02-10T10:00:12.044Z,96920.2
2024-02-10T10:01:13.238Z,96919.2
2024-02-10T10:02:12.632Z,96920.4
2024-02-10T10:03:12.530Z,96918.2
2024-02-10T10:04:11.795Z,96915.4
2024-02-10T10:05:12.345Z,96912.2
2024-02-10T10:06:14.583Z,96909.4
2024-02-10T10:07:12.392Z,96907.4
2024-02-10T10:08:12.284Z,96907.6
2024-02-10T10:09:12.247Z,96909.8
2024-02-10T10:10:12.163Z,96909.8
2024-02-10T10:11:13.211Z,96912.4
2024-02-10T10:12:12.429Z,96914.4
2024-02-10T10:13:12.017Z,96915
2024-02-10T10:14:13.945Z,96914.6
2024-02-10T10:15:11.967Z,96915.8
2024-02-10T10:16:11.990Z,96913.8
2024-02-10T10:17:11.838Z,96911.2
2024-02-10T10:18:11.766Z,96912
2024-02-10T10:19:11.585Z,96911.6
2024-02-10T10:20:11.554Z,96912.2
2024-02-10T10:21:11.409Z,96911.2
2024-02-10T10:22:13.403Z,96908.2
2024-02-10T10:23:13.305Z,96903.6
2024-02-10T10:24:12.236Z,96901.2
2024-02-10T10:25:12.232Z,96899
2024-02-10T10:26:12.240Z,96893.6
2024-02-10T10:27:13.754Z,96891.8
2024-02-10T10:28:13.978Z,96890
2024-02-10T10:29:12.950Z,96885.2
2024-02-10T10:30:13.198Z,96880.6
2024-02-10T10:31:15.611Z,96884.4
2024-02-10T10:32:12.641Z,96888
2024-02-10T10:33:12.818Z,96891.4
2024-02-10T10:34:12.243Z,96897.2
2024-02-10T10:35:11.732Z,96900.4
2024-02-10T10:36:11.663Z,96899.4
2024-02-10T10:37:12.215Z,96898
2024-02-10T10:38:13.437Z,96896
2024-02-10T10:39:12.369Z,96893
2024-02-10T10:40:12.331Z,96892.2
2024-02-10T10:41:11.814Z,96888.4
2024-02-10T10:42:12.238Z,96884.6
2024-02-10T10:43:14.776Z,96882.2
2024-02-10T10:44:12.261Z,96882.2
2024-02-10T10:45:11.652Z,96882
2024-02-10T10:46:13.479Z,96884.6
2024-02-10T10:47:11.717Z,96883.8
2024-02-10T10:48:12.318Z,96881
2024-02-10T10:49:16.348Z,96877.4
2024-02-10T10:50:13.336Z,96872.8
2024-02-10T10:51:15.175Z,96869
2024-02-10T10:52:13.221Z,96870
2024-02-10T10:53:14.102Z,96872.8
2024-02-10T10:54:18.612Z,96875
2024-02-10T10:55:14.846Z,96878
2024-02-10T10:56:13.008Z,96880
2024-02-10T10:57:12.695Z,96880
2024-02-10T10:58:14.638Z,96879.2
2024-02-10T10:59:12.209Z,96878.2
2024-02-10T11:00:12.532Z,96878
2024-02-10T11:01:16.488Z,96879
2024-02-10T11:03:12.630Z,96878
2024-02-10T11:04:12.352Z,96876.4
2024-02-10T11:05:12.227Z,96875.2
2024-02-10T11:06:12.371Z,96873.2
2024-02-10T11:07:14.843Z,96872.2
2024-02-10T11:08:12.363Z,96872.8
2024-02-10T11:09:13.173Z,96874
2024-02-10T11:10:14.432Z,96873.4
2024-02-10T11:11:15.296Z,96873.2
2024-02-10T11:12:12.759Z,96874.2
2024-02-10T11:13:13.539Z,96872.2
2024-02-10T11:14:12.182Z,96870.8
2024-02-10T11:15:12.991Z,96870.6
2024-02-10T11:16:12.473Z,96870
2024-02-10T11:17:12.673Z,96868
2024-02-10T11:18:15.373Z,96868.6
2024-02-10T11:19:12.906Z,96868.8
2024-02-10T11:20:12.649Z,96868
2024-02-10T11:21:12.425Z,96867.4
2024-02-10T11:22:12.361Z,96868.2
2024-02-10T11:23:12.368Z,96867.6
2024-02-10T11:24:12.608Z,96865.2
2024-02-10T11:25:16.632Z,96862.8
2024-02-10T11:26:14.783Z,96861.6
2024-02-10T11:27:20.058Z,96860
2024-02-10T11:28:12.760Z,96859.2
2024-02-10T11:29:12.478Z,96860.6
2024-02-10T11:30:13.139Z,96862.8
2024-02-10T11:31:12.774Z,96864.8
2024-02-10T11:32:14.084Z,96866.4
2024-02-10T11:33:12.835Z,96867
2024-02-10T11:34:13.950Z,96865.8
2024-02-10T11:35:12.086Z,96865
2024-02-10T11:36:12.568Z,96861.6
2024-02-10T11:37:11.995Z,96859.4
2024-02-10T11:38:12.036Z,96859
2024-02-10T11:39:12.065Z,96859.6
2024-02-10T11:40:12.140Z,96858.2
2024-02-10T11:41:12.139Z,96859.2
2024-02-10T11:42:21.184Z,96859
2024-02-10T11:43:12.335Z,96858.8
2024-02-10T11:44:12.175Z,96858.8
2024-02-10T11:45:13.211Z,96860
2024-02-10T11:46:12.248Z,96861.6
2024-02-10T11:47:12.240Z,96863.6
2024-02-10T11:48:12.235Z,96864
2024-02-10T11:49:12.263Z,96863
2024-02-10T11:50:12.368Z,96862.2
2024-02-10T11:51:14.109Z,96860.2
2024-02-10T11:52:13.051Z,96858.2
2024-02-10T11:53:12.059Z,96857.2
2024-02-10T11:54:12.050Z,96857.4
2024-02-10T11:55:11.958Z,96857.8
2024-02-10T11:56:12.041Z,96859
2024-02-10T11:57:12.940Z,96859
2024-02-10T11:58:12.706Z,96861.2
2024-02-10T11:59:12.894Z,96863
2024-02-10T12:00:13.764Z,96861.6
2024-02-10T12:01:12.509Z,96860.4
2024-02-10T12:02:13.512Z,96860.6
2024-02-10T12:03:11.581Z,96859.2
2024-02-10T12:04:11.573Z,96857.6
2024-02-10T12:05:11.618Z,96861
2024-02-10T12:06:12.609Z,96864
2024-02-10T12:07:11.437Z,96866
2024-02-10T12:08:13.404Z,96867.4
2024-02-10T12:09:13.393Z,96870.2
2024-02-10T12:10:12.485Z,96870.8
2024-02-10T12:11:13.301Z,96871.6
2024-02-10T12:12:12.345Z,96872.6
2024-02-10T12:13:12.162Z,96872.4
2024-02-10T12:14:12.129Z,96872.6
2024-02-10T12:15:12.194Z,96872.6
2024-02-10T12:16:12.131Z,96871.4